createdAt,value
2019-05-20T00:00:11.255Z,8.10
2019-05-20T00:01:11.181Z,8.10
2019-05-20T00:02:24.546Z,8.10
2019-05-20T00:03:11.081Z,7.80
2019-05-20T00:04:11.030Z,8.20
2019-05-20T00:05:11.003Z,8.40
2019-05-20T00:06:10.941Z,8.80
2019-05-20T00:07:10.883Z,8.30
2019-05-20T00:08:10.834Z,8.50
2019-05-20T00:09:10.783Z,8.50
2019-05-20T00:10:10.755Z,8.10
2019-05-20T00:11:10.675Z,8.60
2019-05-20T00:12:10.632Z,8.80
2019-05-20T00:13:10.582Z,8.70
2019-05-20T00:14:10.534Z,8.80
2019-05-20T00:15:10.507Z,8.50
2019-05-20T00:16:10.429Z,8.50
2019-05-20T00:17:10.379Z,8.50
2019-05-20T00:18:10.327Z,8.50
2019-05-20T00:19:10.283Z,8.40
2019-05-20T00:20:10.255Z,8.20
2019-05-20T00:21:10.177Z,9.10
2019-05-20T00:22:10.126Z,8.80
2019-05-20T00:23:10.078Z,8.90
2019-05-20T00:24:10.026Z,8.80
2019-05-20T00:25:10.007Z,9.10
2019-05-20T00:26:09.929Z,8.60
2019-05-20T00:27:09.877Z,9.20
2019-05-20T00:28:09.828Z,8.90
2019-05-20T00:29:09.778Z,9.40
2019-05-20T00:30:09.753Z,9.60
2019-05-20T00:31:09.675Z,8.90
2019-05-20T00:32:09.623Z,8.40
2019-05-20T00:33:09.575Z,8.40
2019-05-20T00:34:09.528Z,8.50
2019-05-20T00:35:09.497Z,8.90
2019-05-20T00:36:09.423Z,9.00
2019-05-20T00:37:09.370Z,9.20
2019-05-20T00:38:09.328Z,9.20
2019-05-20T00:39:09.264Z,9.40
2019-05-20T00:40:09.244Z,9.60
2019-05-20T00:41:09.167Z,9.20
2019-05-20T00:42:09.116Z,9.10
2019-05-20T00:43:09.074Z,9.40
2019-05-20T00:44:09.019Z,9.10
2019-05-20T00:45:08.997Z,9.20
2019-05-20T00:46:08.918Z,9.20
2019-05-20T00:47:08.869Z,9.00
2019-05-20T00:48:08.817Z,9.00
2019-05-20T00:49:08.767Z,9.50
2019-05-20T00:50:08.746Z,9.10
2019-05-20T00:51:08.673Z,9.00
2019-05-20T00:52:08.627Z,9.40
2019-05-20T00:53:08.586Z,9.40
2019-05-20T00:54:08.522Z,9.40
2019-05-20T00:55:08.495Z,9.70
2019-05-20T00:56:08.418Z,9.70
2019-05-20T00:57:08.363Z,9.40
2019-05-20T00:58:08.317Z,9.30
2019-05-20T00:59:08.269Z,9.60
2019-05-20T01:00:08.259Z,9.40
2019-05-20T01:01:08.182Z,9.20
2019-05-20T01:02:08.121Z,9.50
2019-05-20T01:03:08.070Z,9.40
2019-05-20T01:04:08.012Z,9.70
2019-05-20T01:05:07.985Z,9.70
2019-05-20T01:06:07.916Z,9.40
2019-05-20T01:07:07.865Z,9.40
2019-05-20T01:08:07.810Z,9.30
2019-05-20T01:09:07.759Z,9.40
2019-05-20T01:10:07.737Z,9.30
2019-05-20T01:11:07.664Z,9.40
2019-05-20T01:12:07.608Z,9.20
2019-05-20T01:13:07.557Z,9.70
2019-05-20T01:14:07.508Z,9.40
2019-05-20T01:15:07.483Z,9.80
2019-05-20T01:16:07.408Z,9.40
2019-05-20T01:17:07.360Z,9.30
2019-05-20T01:18:07.306Z,9.50
2019-05-20T01:19:07.257Z,9.80
2019-05-20T01:20:07.232Z,9.50
2019-05-20T01:21:07.156Z,10.00
2019-05-20T01:22:07.103Z,9.50
2019-05-20T01:23:07.056Z,9.60
2019-05-20T01:24:07.008Z,9.70
2019-05-20T01:25:06.980Z,9.80
2019-05-20T01:26:06.901Z,9.50
2019-05-20T01:27:06.850Z,9.70
2019-05-20T01:28:06.799Z,9.80
2019-05-20T01:29:06.751Z,10.20
2019-05-20T01:30:06.723Z,9.80
2019-05-20T01:31:06.651Z,9.80
2019-05-20T01:32:06.597Z,9.90
2019-05-20T01:33:13.917Z,9.70
2019-05-20T01:34:06.494Z,10.10
2019-05-20T01:35:06.472Z,9.10
2019-05-20T01:36:06.395Z,9.70
2019-05-20T01:37:06.344Z,9.00
2019-05-20T01:38:06.297Z,10.30
2019-05-20T01:39:06.251Z,10.00
2019-05-20T01:40:06.218Z,8.40
2019-05-20T01:41:06.167Z,9.60
2019-05-20T01:42:06.091Z,9.90
2019-05-20T01:43:06.053Z,10.00
2019-05-20T01:44:05.989Z,9.50
2019-05-20T01:45:05.942Z,9.50
2019-05-20T01:46:05.914Z,9.90
2019-05-20T01:47:05.840Z,10.30
2019-05-20T01:48:05.794Z,9.70
2019-05-20T01:49:05.741Z,10.50
2019-05-20T01:50:05.688Z,9.90
2019-05-20T01:51:05.661Z,9.80
2019-05-20T01:52:05.588Z,9.90
2019-05-20T01:53:05.537Z,10.10
2019-05-20T01:54:05.482Z,10.10
2019-05-20T01:55:05.427Z,10.70
2019-05-20T01:56:05.408Z,10.60
2019-05-20T01:57:05.334Z,10.40
2019-05-20T01:58:05.285Z,11.00
2019-05-20T01:59:05.230Z,10.80
2019-05-20T02:00:05.183Z,10.80
2019-05-20T02:01:05.151Z,10.80
2019-05-20T02:02:05.078Z,10.80
2019-05-20T02:03:05.029Z,10.90
2019-05-20T02:04:04.984Z,11.00
2019-05-20T02:05:04.926Z,10.80
2019-05-20T02:06:04.900Z,10.70
2019-05-20T02:07:04.837Z,10.70
2019-05-20T02:08:04.777Z,10.40
2019-05-20T02:09:04.733Z,10.70
2019-05-20T02:10:04.686Z,10.90
2019-05-20T02:11:04.646Z,10.40
2019-05-20T02:12:04.579Z,10.40
2019-05-20T02:13:04.523Z,9.80
2019-05-20T02:14:04.467Z,10.20
2019-05-20T02:15:04.428Z,10.80
2019-05-20T02:16:04.421Z,11.00
2019-05-20T02:17:04.322Z,11.10
2019-05-20T02:18:04.270Z,10.60
2019-05-20T02:19:04.214Z,11.00
2019-05-20T02:20:04.176Z,10.60
2019-05-20T02:21:04.151Z,11.00
2019-05-20T02:22:04.065Z,10.90
2019-05-20T02:23:04.013Z,11.60
2019-05-20T02:24:03.966Z,11.00
2019-05-20T02:25:03.908Z,10.50
2019-05-20T02:26:03.900Z,10.60
2019-05-20T02:27:03.811Z,10.80
2019-05-20T02:28:03.761Z,10.90
2019-05-20T02:29:03.738Z,11.00
2019-05-20T02:30:03.663Z,10.60
2019-05-20T02:31:03.631Z,10.50
2019-05-20T02:32:03.555Z,10.80
2019-05-20T02:33:03.508Z,11.10
2019-05-20T02:34:03.458Z,11.50
2019-05-20T02:35:03.410Z,10.20
2019-05-20T02:36:03.383Z,8.90
2019-05-20T02:37:03.313Z,9.00
2019-05-20T02:38:03.257Z,8.90
2019-05-20T02:39:03.199Z,8.90
2019-05-20T02:40:03.166Z,9.80
2019-05-20T02:41:03.160Z,9.70
2019-05-20T02:42:03.046Z,10.70
2019-05-20T02:43:03.002Z,9.60
2019-05-20T02:44:02.959Z,10.10
2019-05-20T02:45:02.892Z,10.60
2019-05-20T02:46:02.845Z,11.40
2019-05-20T02:47:02.817Z,11.70
2019-05-20T02:48:02.744Z,11.80
2019-05-20T02:49:02.691Z,12.30
2019-05-20T02:50:02.666Z,12.30
2019-05-20T02:51:02.588Z,11.80
2019-05-20T02:52:02.561Z,12.20
2019-05-20T02:53:02.485Z,12.10
2019-05-20T02:54:02.482Z,12.80
2019-05-20T02:55:02.384Z,12.80
2019-05-20T02:56:02.340Z,11.40
2019-05-20T02:57:02.307Z,12.30
2019-05-20T02:58:02.228Z,12.10
2019-05-20T02:59:02.192Z,11.80
2019-05-20T03:00:02.132Z,12.80
2019-05-20T03:01:02.091Z,12.50
2019-05-20T03:02:02.050Z,12.20
2019-05-20T03:03:01.975Z,12.70
2019-05-20T03:04:11.765Z,12.90
2019-05-20T03:05:01.914Z,12.80
2019-05-20T03:06:01.825Z,11.20
2019-05-20T03:07:01.805Z,11.50
2019-05-20T03:08:01.724Z,12.20
2019-05-20T03:09:01.671Z,12.70
2019-05-20T03:10:01.644Z,12.60
2019-05-20T03:11:01.579Z,12.40
2019-05-20T03:12:01.542Z,12.50
2019-05-20T03:13:01.469Z,12.70
2019-05-20T03:14:01.428Z,13.30
2019-05-20T03:15:01.365Z,13.10
2019-05-20T03:16:01.316Z,12.50
2019-05-20T03:17:01.284Z,13.50
2019-05-20T03:18:01.206Z,14.40
2019-05-20T03:19:01.157Z,13.90
2019-05-20T03:20:01.120Z,12.90
2019-05-20T03:21:01.060Z,12.40
2019-05-20T03:22:01.031Z,12.80
2019-05-20T03:23:00.951Z,13.00
2019-05-20T03:24:00.906Z,13.10
2019-05-20T03:25:00.849Z,12.70
2019-05-20T03:26:00.809Z,12.90
2019-05-20T03:27:00.770Z,13.00
2019-05-20T03:28:00.704Z,13.10
2019-05-20T03:29:00.644Z,13.10
2019-05-20T03:30:00.600Z,12.90
2019-05-20T03:31:00.549Z,13.10
2019-05-20T03:32:00.513Z,13.50
2019-05-20T03:33:00.436Z,13.10
2019-05-20T03:34:00.397Z,13.30
2019-05-20T03:35:01.306Z,13.20
2019-05-20T03:36:00.284Z,13.30
2019-05-20T03:37:00.260Z,13.70
2019-05-20T03:38:00.185Z,13.70
2019-05-20T03:39:00.134Z,13.80
2019-05-20T03:40:00.165Z,13.50
2019-05-20T03:41:00.037Z,13.70
2019-05-20T03:42:00.007Z,14.10
2019-05-20T03:42:59.929Z,13.00
2019-05-20T03:43:59.882Z,13.60
2019-05-20T03:44:59.824Z,13.50
2019-05-20T03:45:59.773Z,13.30
2019-05-20T03:46:59.755Z,13.20
2019-05-20T03:47:59.673Z,13.00
2019-05-20T03:48:59.619Z,13.60
2019-05-20T03:49:59.577Z,13.90
2019-05-20T03:50:59.520Z,12.90
2019-05-20T03:51:59.490Z,13.00
2019-05-20T03:52:59.418Z,13.50
2019-05-20T03:53:59.366Z,12.70
2019-05-20T03:54:59.316Z,13.10
2019-05-20T03:55:59.269Z,13.80
2019-05-20T03:56:59.240Z,14.20
2019-05-20T03:57:59.162Z,13.70
2019-05-20T03:58:59.116Z,14.40
2019-05-20T03:59:59.065Z,14.20
2019-05-20T04:00:59.009Z,13.20
2019-05-20T04:01:58.991Z,13.90
2019-05-20T04:02:58.905Z,13.20
2019-05-20T04:03:58.860Z,14.20
2019-05-20T04:05:02.866Z,14.90
2019-05-20T04:05:58.755Z,13.80
2019-05-20T04:06:58.727Z,14.30
2019-05-20T04:07:58.652Z,14.40
2019-05-20T04:08:58.601Z,14.30
2019-05-20T04:09:58.551Z,14.60
2019-05-20T04:10:58.506Z,16.00
2019-05-20T04:11:58.473Z,15.80
2019-05-20T04:12:58.398Z,15.60
2019-05-20T04:13:58.352Z,16.10
2019-05-20T04:14:58.300Z,15.60
2019-05-20T04:15:58.241Z,15.90
2019-05-20T04:16:58.274Z,15.80
2019-05-20T04:17:58.142Z,16.60
2019-05-20T04:18:58.089Z,16.40
2019-05-20T04:19:58.048Z,15.80
2019-05-20T04:20:57.993Z,15.20
2019-05-20T04:21:57.962Z,15.70
2019-05-20T04:22:57.920Z,17.00
2019-05-20T04:24:00.975Z,17.40
2019-05-20T04:24:57.797Z,17.80
2019-05-20T04:25:57.747Z,16.90
2019-05-20T04:26:57.692Z,17.90
2019-05-20T04:27:57.666Z,16.50
2019-05-20T04:28:57.593Z,15.80
2019-05-20T04:29:57.547Z,17.20
2019-05-20T04:30:57.486Z,17.20
2019-05-20T04:31:57.433Z,16.70
2019-05-20T04:32:57.412Z,17.40
2019-05-20T04:33:57.329Z,17.90
2019-05-20T04:34:57.286Z,18.30
2019-05-20T04:35:57.233Z,18.00
2019-05-20T04:36:57.191Z,18.50
2019-05-20T04:37:57.162Z,18.20
2019-05-20T04:38:57.083Z,18.50
2019-05-20T04:39:57.036Z,19.00
2019-05-20T04:40:56.987Z,16.70
2019-05-20T04:41:56.928Z,17.40
2019-05-20T04:42:56.911Z,18.30
2019-05-20T04:43:56.830Z,18.70
2019-05-20T04:44:56.779Z,18.60
2019-05-20T04:45:56.733Z,17.40
2019-05-20T04:46:58.021Z,18.00
2019-05-20T04:47:56.657Z,17.40
2019-05-20T04:48:56.576Z,17.70
2019-05-20T04:49:56.534Z,19.00
2019-05-20T04:50:56.483Z,19.40
2019-05-20T04:51:56.429Z,18.80
2019-05-20T04:52:56.404Z,19.00
2019-05-20T04:53:56.329Z,18.60
2019-05-20T04:54:56.277Z,19.10
2019-05-20T04:55:56.230Z,19.20
2019-05-20T04:56:56.181Z,19.00
2019-05-20T04:57:56.159Z,18.80
2019-05-20T04:58:56.082Z,19.40
2019-05-20T04:59:56.028Z,19.50
2019-05-20T05:00:55.994Z,19.90
2019-05-20T05:01:55.938Z,19.10
2019-05-20T05:02:55.913Z,19.00
2019-05-20T05:03:55.827Z,17.90
2019-05-20T05:04:55.775Z,17.60
2019-05-20T05:05:55.736Z,18.90
2019-05-20T05:06:55.681Z,18.80
2019-05-20T05:07:55.657Z,18.90
2019-05-20T05:08:55.585Z,18.50
2019-05-20T05:09:55.535Z,18.50
2019-05-20T05:10:55.479Z,19.10
2019-05-20T05:11:55.437Z,18.50
2019-05-20T05:12:55.407Z,19.20
2019-05-20T05:13:55.335Z,19.30
2019-05-20T05:14:55.287Z,19.20
2019-05-20T05:15:55.241Z,19.10
2019-05-20T05:16:55.190Z,18.50
2019-05-20T05:17:55.159Z,19.70
2019-05-20T05:18:55.084Z,20.00
2019-05-20T05:19:55.033Z,20.00
2019-05-20T05:20:54.988Z,18.30
2019-05-20T05:21:54.937Z,19.80
2019-05-20T05:22:54.914Z,19.90
2019-05-20T05:23:59.361Z,20.60
2019-05-20T05:24:54.791Z,20.20
2019-05-20T05:25:54.746Z,19.80
2019-05-20T05:26:54.698Z,19.20
2019-05-20T05:27:54.669Z,19.60
2019-05-20T05:28:54.598Z,18.90
2019-05-20T05:29:54.546Z,18.50
2019-05-20T05:30:54.556Z,18.40
2019-05-20T05:31:54.456Z,19.10
2019-05-20T05:32:54.424Z,18.70
2019-05-20T05:33:54.537Z,18.40
2019-05-20T05:34:54.301Z,18.60
2019-05-20T05:35:54.250Z,18.60
2019-05-20T05:36:54.202Z,19.30
2019-05-20T05:37:54.231Z,19.40
2019-05-20T05:38:54.104Z,20.20
2019-05-20T05:39:54.054Z,19.80
2019-05-20T05:40:54.012Z,18.30
2019-05-20T05:41:53.954Z,18.70
2019-05-20T05:42:53.932Z,18.00
2019-05-20T05:43:53.861Z,19.30
2019-05-20T05:44:53.812Z,18.70
2019-05-20T05:45:53.763Z,19.30
2019-05-20T05:46:53.745Z,19.50
2019-05-20T05:47:53.686Z,20.20
2019-05-20T05:48:53.615Z,19.70
2019-05-20T05:49:53.568Z,19.10
2019-05-20T05:50:53.519Z,19.30
2019-05-20T05:51:53.470Z,18.90
2019-05-20T05:52:53.453Z,19.70
2019-05-20T05:53:53.394Z,20.20
2019-05-20T05:54:53.326Z,20.10
2019-05-20T05:55:53.271Z,20.30
2019-05-20T05:56:53.228Z,20.70
2019-05-20T05:57:53.181Z,20.30
2019-05-20T05:58:53.152Z,22.00
2019-05-20T05:59:53.080Z,21.10
2019-05-20T06:00:53.029Z,19.70
2019-05-20T06:01:52.988Z,21.70
2019-05-20T06:02:52.925Z,21.60
2019-05-20T06:03:52.909Z,21.00
2019-05-20T06:04:52.834Z,20.50
2019-05-20T06:06:10.340Z,21.80
2019-05-20T06:06:52.735Z,21.30
2019-05-20T06:07:52.684Z,20.40
2019-05-20T06:08:52.665Z,20.90
2019-05-20T06:09:52.586Z,20.40
2019-05-20T06:10:52.533Z,22.00
2019-05-20T06:11:52.492Z,21.40
2019-05-20T06:12:52.439Z,21.80
2019-05-20T06:13:52.414Z,22.30
2019-05-20T06:14:52.345Z,22.20
2019-05-20T06:15:54.592Z,21.30
2019-05-20T06:16:52.240Z,22.10
2019-05-20T06:17:52.200Z,22.20
2019-05-20T06:18:52.172Z,21.20
2019-05-20T06:19:52.103Z,20.40
2019-05-20T06:20:52.051Z,21.50
2019-05-20T06:21:51.992Z,22.20
2019-05-20T06:22:51.951Z,22.40
2019-05-20T06:23:51.927Z,22.10
2019-05-20T06:24:51.866Z,21.70
2019-05-20T06:25:51.798Z,23.30
2019-05-20T06:26:51.756Z,23.00
2019-05-20T06:27:51.703Z,25.10
2019-05-20T06:28:51.678Z,24.60
2019-05-20T06:29:51.605Z,25.60
2019-05-20T06:30:51.553Z,25.20
2019-05-20T06:31:51.573Z,24.90
2019-05-20T06:32:51.453Z,24.40
2019-05-20T06:33:51.430Z,24.40
2019-05-20T06:34:51.375Z,26.40
2019-05-20T06:35:51.304Z,25.30
2019-05-20T06:36:51.261Z,26.30
2019-05-20T06:37:51.212Z,26.10
2019-05-20T06:38:51.190Z,26.40
2019-05-20T06:39:51.417Z,26.20
2019-05-20T06:40:51.068Z,25.80
2019-05-20T06:41:51.020Z,26.20
2019-05-20T06:42:50.967Z,27.40
2019-05-20T06:43:50.938Z,26.60
2019-05-20T06:44:53.961Z,27.40
2019-05-20T06:45:50.815Z,26.90
2019-05-20T06:46:50.769Z,27.30
2019-05-20T06:47:50.723Z,26.80
2019-05-20T06:48:50.701Z,27.30
2019-05-20T06:49:50.622Z,26.70
2019-05-20T06:50:50.574Z,28.10
2019-05-20T06:51:50.524Z,28.30
2019-05-20T06:52:50.471Z,27.80
2019-05-20T06:53:50.455Z,28.30
2019-05-20T06:54:50.383Z,26.70
2019-05-20T06:55:50.329Z,27.50
2019-05-20T06:56:50.306Z,28.50
2019-05-20T06:57:50.228Z,26.80
2019-05-20T06:58:50.206Z,28.00
2019-05-20T06:59:50.138Z,27.50
2019-05-20T07:00:50.080Z,29.80
2019-05-20T07:01:50.033Z,29.00
2019-05-20T07:02:52.125Z,27.50
2019-05-20T07:03:49.958Z,28.50
2019-05-20T07:04:49.887Z,28.80
2019-05-20T07:05:49.839Z,29.50
2019-05-20T07:06:49.794Z,30.40
2019-05-20T07:07:49.732Z,30.00
2019-05-20T07:08:49.715Z,30.10
2019-05-20T07:09:49.641Z,30.60
2019-05-20T07:10:49.591Z,31.60
2019-05-20T07:11:52.747Z,31.80
2019-05-20T07:12:49.490Z,30.80
2019-05-20T07:13:49.468Z,32.40
2019-05-20T07:14:49.401Z,30.50
2019-05-20T07:15:49.346Z,31.20
2019-05-20T07:16:49.459Z,30.90
2019-05-20T07:17:49.246Z,31.50
2019-05-20T07:18:49.237Z,31.10
2019-05-20T07:19:49.174Z,33.30
2019-05-20T07:20:49.097Z,33.40
2019-05-20T07:21:49.051Z,32.40
2019-05-20T07:22:55.835Z,31.50
2019-05-20T07:23:52.308Z,31.10
2019-05-20T07:24:48.933Z,30.60
2019-05-20T07:25:48.863Z,31.00
2019-05-20T07:26:48.802Z,31.80
2019-05-20T07:27:48.760Z,31.20
2019-05-20T07:28:48.713Z,31.30
2019-05-20T07:29:48.682Z,30.80
2019-05-20T07:30:48.607Z,31.80
2019-05-20T07:31:48.562Z,30.50
2019-05-20T07:32:48.511Z,33.90
2019-05-20T07:33:48.456Z,32.80
2019-05-20T07:34:48.441Z,32.80
2019-05-20T07:35:48.378Z,31.60
2019-05-20T07:37:01.888Z,33.60
2019-05-20T07:37:48.266Z,35.30
2019-05-20T07:38:48.212Z,33.30
2019-05-20T07:39:48.186Z,34.30
2019-05-20T07:40:48.115Z,34.80
2019-05-20T07:41:48.063Z,35.20
2019-05-20T07:42:48.014Z,35.70
2019-05-20T07:43:47.967Z,36.00
2019-05-20T07:44:47.941Z,36.10
2019-05-20T07:45:47.874Z,33.80
2019-05-20T07:46:47.818Z,35.30
2019-05-20T07:47:47.776Z,33.90
2019-05-20T07:48:47.735Z,35.50
2019-05-20T07:49:47.699Z,34.20
2019-05-20T07:50:47.617Z,33.20
2019-05-20T07:51:47.575Z,35.00
2019-05-20T07:52:47.524Z,33.10
2019-05-20T07:53:47.489Z,34.30
2019-05-20T07:54:47.445Z,35.00
2019-05-20T07:55:47.405Z,36.10
2019-05-20T07:56:47.328Z,34.80
2019-05-20T07:57:47.277Z,35.40
2019-05-20T07:58:47.222Z,35.10
2019-05-20T07:59:47.229Z,33.20
2019-05-20T08:00:47.132Z,35.70
2019-05-20T08:01:47.084Z,35.90
2019-05-20T08:02:47.053Z,34.70
2019-05-20T08:03:46.977Z,34.70
2019-05-20T08:04:46.976Z,34.60
2019-05-20T08:05:46.912Z,36.00
2019-05-20T08:06:46.842Z,36.70
2019-05-20T08:07:52.375Z,37.80
2019-05-20T08:08:46.745Z,37.90
2019-05-20T08:09:46.764Z,35.50
2019-05-20T08:10:46.665Z,36.50
2019-05-20T08:11:46.605Z,34.90
2019-05-20T08:12:46.537Z,34.90
2019-05-20T08:13:46.482Z,34.90
2019-05-20T08:14:46.442Z,34.90
2019-05-20T08:15:46.417Z,36.50
2019-05-20T08:16:46.343Z,35.90
2019-05-20T08:17:46.304Z,35.40
2019-05-20T08:18:46.263Z,36.40
2019-05-20T08:19:46.192Z,35.60
2019-05-20T08:20:46.162Z,36.10
2019-05-20T08:21:46.091Z,35.50
2019-05-20T08:22:46.045Z,35.90
2019-05-20T08:23:49.882Z,35.30
2019-05-20T08:24:45.947Z,36.80
2019-05-20T08:25:45.917Z,35.10
2019-05-20T08:26:45.871Z,35.30
2019-05-20T08:27:45.794Z,36.90
2019-05-20T08:28:45.748Z,35.50
2019-05-20T08:29:45.697Z,36.50
2019-05-20T08:30:45.682Z,36.10
2019-05-20T08:31:45.609Z,36.00
2019-05-20T08:32:45.552Z,35.00
2019-05-20T08:33:45.496Z,36.00
2019-05-20T08:34:45.452Z,37.60
2019-05-20T08:35:45.430Z,37.70
2019-05-20T08:36:45.356Z,39.00
2019-05-20T08:37:46.176Z,38.30
2019-05-20T08:38:45.254Z,38.50
2019-05-20T08:39:45.206Z,38.60
2019-05-20T08:40:48.480Z,37.90
2019-05-20T08:41:45.112Z,38.50
2019-05-20T08:42:45.064Z,36.50
2019-05-20T08:43:45.009Z,37.80
2019-05-20T08:44:45.070Z,36.40
2019-05-20T08:45:44.942Z,36.80
2019-05-20T08:46:44.861Z,36.40
2019-05-20T08:47:44.811Z,35.40
2019-05-20T08:48:44.774Z,35.80
2019-05-20T08:49:44.849Z,35.80
2019-05-20T08:50:44.692Z,37.70
2019-05-20T08:51:44.631Z,39.00
2019-05-20T08:52:44.573Z,38.10
2019-05-20T08:53:44.525Z,36.30
2019-05-20T08:54:44.474Z,36.40
2019-05-20T08:55:44.445Z,37.90
2019-05-20T08:56:44.375Z,36.20
2019-05-20T08:57:44.327Z,36.20
2019-05-20T08:58:44.276Z,36.00
2019-05-20T08:59:44.227Z,35.70
2019-05-20T09:00:44.198Z,36.00
2019-05-20T09:01:44.131Z,35.20
2019-05-20T09:02:44.080Z,37.60
2019-05-20T09:03:44.045Z,36.40
2019-05-20T09:04:43.975Z,37.60
2019-05-20T09:05:43.961Z,38.20
2019-05-20T09:06:43.883Z,37.40
2019-05-20T09:07:43.895Z,37.00
2019-05-20T09:08:43.858Z,37.60
2019-05-20T09:09:43.734Z,37.00
2019-05-20T09:10:43.711Z,38.70
2019-05-20T09:11:47.290Z,39.00
2019-05-20T09:12:43.710Z,38.00
2019-05-20T09:13:43.559Z,39.50
2019-05-20T09:14:43.494Z,39.50
2019-05-20T09:15:45.359Z,39.80
2019-05-20T09:16:43.393Z,39.80
2019-05-20T09:17:43.340Z,39.30
2019-05-20T09:18:43.310Z,38.90
2019-05-20T09:19:46.711Z,39.70
2019-05-20T09:20:43.287Z,38.70
2019-05-20T09:21:43.153Z,39.30
2019-05-20T09:22:43.112Z,38.90
2019-05-20T09:23:43.046Z,39.70
2019-05-20T09:24:43.098Z,38.90
2019-05-20T09:25:42.983Z,39.40
2019-05-20T09:26:42.905Z,40.50
2019-05-20T09:27:42.862Z,41.20
2019-05-20T09:28:42.801Z,40.70
2019-05-20T09:29:42.754Z,40.50
2019-05-20T09:30:42.780Z,40.60
2019-05-20T09:31:42.664Z,39.50
2019-05-20T09:32:43.321Z,40.20
2019-05-20T09:33:42.577Z,40.30
2019-05-20T09:34:42.515Z,40.00
2019-05-20T09:35:42.657Z,38.70
2019-05-20T09:36:42.459Z,40.70
2019-05-20T09:37:42.383Z,40.80
2019-05-20T09:38:42.329Z,40.90
2019-05-20T09:39:42.271Z,39.40
2019-05-20T09:40:42.216Z,37.90
2019-05-20T09:41:42.205Z,37.10
2019-05-20T09:42:42.115Z,39.00
2019-05-20T09:43:42.085Z,38.70
2019-05-20T09:44:42.027Z,40.40
2019-05-20T09:45:41.996Z,39.70
2019-05-20T09:46:41.952Z,40.10
2019-05-20T09:47:41.875Z,37.60
2019-05-20T09:48:41.820Z,39.50
2019-05-20T09:49:41.780Z,40.80
2019-05-20T09:50:41.726Z,37.10
2019-05-20T09:51:41.708Z,38.20
2019-05-20T09:52:41.627Z,36.30
2019-05-20T09:53:41.580Z,38.50
2019-05-20T09:54:45.313Z,37.80
2019-05-20T09:55:41.483Z,36.10
2019-05-20T09:56:41.463Z,38.00
2019-05-20T09:57:41.382Z,37.40
2019-05-20T09:58:41.335Z,36.30
2019-05-20T09:59:43.703Z,36.60
2019-05-20T10:00:41.246Z,36.50
2019-05-20T10:01:41.213Z,36.10
2019-05-20T10:02:41.146Z,34.30
2019-05-20T10:03:41.101Z,35.30
2019-05-20T10:04:41.050Z,36.00
2019-05-20T10:05:41.001Z,35.70
2019-05-20T10:06:40.973Z,35.00
2019-05-20T10:07:40.909Z,34.70
2019-05-20T10:08:44.762Z,34.90
2019-05-20T10:09:40.800Z,34.60
2019-05-20T10:10:40.757Z,35.00
2019-05-20T10:11:40.737Z,35.60
2019-05-20T10:12:46.472Z,36.20
2019-05-20T10:13:40.609Z,36.00
2019-05-20T10:14:40.562Z,34.30
2019-05-20T10:15:40.512Z,35.20
2019-05-20T10:16:40.489Z,35.30
2019-05-20T10:17:40.418Z,36.20
2019-05-20T10:18:40.369Z,35.70
2019-05-20T10:19:40.316Z,35.00
2019-05-20T10:20:40.333Z,35.80
2019-05-20T10:21:40.251Z,35.30
2019-05-20T10:22:40.179Z,36.30
2019-05-20T10:23:40.129Z,34.80
2019-05-20T10:24:40.083Z,34.70
2019-05-20T10:25:40.089Z,35.70
2019-05-20T10:26:40.013Z,34.90
2019-05-20T10:27:39.933Z,35.00
2019-05-20T10:28:42.262Z,34.40
2019-05-20T10:29:39.848Z,34.00
2019-05-20T10:30:39.805Z,34.80
2019-05-20T10:31:39.783Z,33.80
2019-05-20T10:32:39.700Z,33.30
2019-05-20T10:33:39.673Z,33.30
2019-05-20T10:34:39.596Z,33.70
2019-05-20T10:35:39.549Z,33.40
2019-05-20T10:36:39.530Z,33.90
2019-05-20T10:37:39.474Z,32.90
2019-05-20T10:38:56.818Z,33.60
2019-05-20T10:39:39.360Z,32.60
2019-05-20T10:40:39.317Z,33.60
2019-05-20T10:41:39.297Z,33.20
2019-05-20T10:42:39.210Z,32.60
2019-05-20T10:43:39.170Z,32.00
2019-05-20T10:44:41.889Z,31.70
2019-05-20T10:45:39.076Z,33.30
2019-05-20T10:46:39.048Z,33.00
2019-05-20T10:47:39.011Z,32.20
2019-05-20T10:48:38.932Z,33.50
2019-05-20T10:49:38.950Z,32.10
2019-05-20T10:50:38.835Z,33.40
2019-05-20T10:51:38.788Z,31.30
2019-05-20T10:52:38.766Z,32.40
2019-05-20T10:53:38.690Z,32.20
2019-05-20T10:54:38.651Z,32.50
2019-05-20T10:55:38.599Z,32.80
2019-05-20T10:56:38.557Z,32.10
2019-05-20T10:57:38.530Z,31.80
2019-05-20T10:58:38.459Z,31.80
2019-05-20T10:59:38.413Z,33.10
2019-05-20T11:00:38.365Z,34.20
2019-05-20T11:01:38.316Z,34.20
2019-05-20T11:02:38.295Z,34.50
2019-05-20T11:03:38.226Z,34.70
2019-05-20T11:04:38.179Z,35.20
2019-05-20T11:05:38.122Z,34.60
2019-05-20T11:06:38.077Z,34.70
2019-05-20T11:07:38.068Z,34.50
2019-05-20T11:08:37.979Z,33.80
2019-05-20T11:09:37.949Z,33.60
2019-05-20T11:10:37.918Z,33.80
2019-05-20T11:11:39.487Z,33.10
2019-05-20T11:12:37.813Z,33.20
2019-05-20T11:13:37.752Z,33.30
2019-05-20T11:14:37.700Z,34.30
2019-05-20T11:15:37.644Z,33.70
2019-05-20T11:16:37.601Z,33.90
2019-05-20T11:17:37.582Z,32.20
2019-05-20T11:18:37.506Z,33.10
2019-05-20T11:19:37.462Z,33.70
2019-05-20T11:20:37.416Z,34.00
2019-05-20T11:21:37.373Z,33.60
2019-05-20T11:22:37.338Z,32.80
2019-05-20T11:23:37.277Z,32.80
2019-05-20T11:24:37.225Z,32.70
2019-05-20T11:25:37.192Z,33.00
2019-05-20T11:26:37.130Z,33.00
2019-05-20T11:27:37.107Z,33.80
2019-05-20T11:28:37.032Z,33.80
2019-05-20T11:29:36.999Z,33.90
2019-05-20T11:30:37.022Z,32.50
2019-05-20T11:31:36.894Z,31.60
2019-05-20T11:32:36.871Z,32.50
2019-05-20T11:33:36.800Z,34.00
2019-05-20T11:34:36.909Z,33.40
2019-05-20T11:35:36.705Z,32.60
2019-05-20T11:36:36.667Z,32.00
2019-05-20T11:37:36.631Z,31.60
2019-05-20T11:38:36.562Z,30.40
2019-05-20T11:39:36.515Z,32.20
2019-05-20T11:40:36.466Z,33.20
2019-05-20T11:41:53.779Z,32.70
2019-05-20T11:42:36.408Z,31.40
2019-05-20T11:43:36.326Z,34.70
2019-05-20T11:44:36.277Z,32.80
2019-05-20T11:45:36.229Z,32.50
2019-05-20T11:46:36.188Z,33.00
2019-05-20T11:47:36.165Z,31.50
2019-05-20T11:48:36.084Z,33.30
2019-05-20T11:49:36.045Z,32.20
2019-05-20T11:50:35.994Z,32.90
2019-05-20T11:51:36.001Z,33.40
2019-05-20T11:52:35.924Z,32.60
2019-05-20T11:53:35.852Z,32.80
2019-05-20T11:54:35.812Z,32.40
2019-05-20T11:55:35.810Z,32.80
2019-05-20T11:56:35.711Z,31.80
2019-05-20T11:57:35.685Z,32.70
2019-05-20T11:58:35.613Z,31.30
2019-05-20T11:59:35.580Z,31.50
2019-05-20T12:00:35.523Z,31.50
2019-05-20T12:01:35.474Z,32.30
2019-05-20T12:02:35.454Z,32.90
2019-05-20T12:03:35.388Z,31.90
2019-05-20T12:04:35.342Z,32.50
2019-05-20T12:05:35.279Z,31.00
2019-05-20T12:06:35.240Z,33.10
2019-05-20T12:07:35.216Z,31.50
2019-05-20T12:08:35.146Z,33.00
2019-05-20T12:09:48.376Z,32.70
2019-05-20T12:10:35.055Z,32.70
2019-05-20T12:11:35.015Z,32.40
2019-05-20T12:12:34.975Z,32.40
2019-05-20T12:13:34.901Z,31.50
2019-05-20T12:14:34.860Z,31.90
2019-05-20T12:15:34.808Z,31.80
2019-05-20T12:16:34.770Z,32.40
2019-05-20T12:17:34.737Z,31.90
2019-05-20T12:18:34.672Z,32.00
2019-05-20T12:19:34.623Z,32.20
2019-05-20T12:20:34.577Z,31.00
2019-05-20T12:21:34.531Z,30.30
2019-05-20T12:22:34.538Z,31.70
2019-05-20T12:23:34.437Z,32.10
2019-05-20T12:24:34.390Z,32.50
2019-05-20T12:25:34.343Z,32.20
2019-05-20T12:26:34.292Z,31.80
2019-05-20T12:27:34.249Z,32.90
2019-05-20T12:28:34.259Z,32.30
2019-05-20T12:29:34.151Z,32.10
2019-05-20T12:30:34.159Z,32.20
2019-05-20T12:31:34.054Z,32.10
2019-05-20T12:32:34.012Z,31.70
2019-05-20T12:33:33.985Z,32.10
2019-05-20T12:34:33.918Z,32.40
2019-05-20T12:35:33.870Z,32.50
2019-05-20T12:36:33.820Z,33.10
2019-05-20T12:37:33.775Z,33.00
2019-05-20T12:38:33.753Z,32.30
2019-05-20T12:39:33.709Z,32.00
2019-05-20T12:40:33.634Z,33.00
2019-05-20T12:41:33.593Z,32.40
2019-05-20T12:42:33.538Z,31.70
2019-05-20T12:43:33.514Z,32.40
2019-05-20T12:44:33.448Z,31.70
2019-05-20T12:45:33.400Z,31.10
2019-05-20T12:46:33.350Z,32.10
2019-05-20T12:47:33.302Z,31.90
2019-05-20T12:48:33.299Z,31.70
2019-05-20T12:49:33.314Z,32.10
2019-05-20T12:50:33.159Z,32.50
2019-05-20T12:51:33.118Z,31.40
2019-05-20T12:52:33.083Z,31.40
2019-05-20T12:53:33.046Z,31.50
2019-05-20T12:54:32.970Z,30.90
2019-05-20T12:55:32.923Z,29.80